createdAt,value
2018-04-15T00:00:24.522Z,77.45
2018-04-15T00:01:24.511Z,77.13
2018-04-15T00:02:24.431Z,77.42
2018-04-15T00:03:24.389Z,76.75
2018-04-15T00:04:24.364Z,77.51
2018-04-15T00:05:24.335Z,77.98
2018-04-15T00:06:24.260Z,77.64
2018-04-15T00:07:24.198Z,76.75
2018-04-15T00:08:24.147Z,76.94
2018-04-15T00:09:24.102Z,77.70
2018-04-15T00:10:24.090Z,77.61
2018-04-15T00:11:24.003Z,79.13
2018-04-15T00:12:23.951Z,79.99
2018-04-15T00:13:23.904Z,80.55
2018-04-15T00:14:23.866Z,79.89
2018-04-15T00:15:23.846Z,79.89
2018-04-15T00:16:23.760Z,81.13
2018-04-15T00:17:23.716Z,80.75
2018-04-15T00:18:23.667Z,81.60
2018-04-15T00:19:23.618Z,82.80
2018-04-15T00:20:23.601Z,81.76
2018-04-15T00:21:23.520Z,81.47
2018-04-15T00:22:23.516Z,81.03
2018-04-15T00:23:23.424Z,80.90
2018-04-15T00:24:23.399Z,81.37
2018-04-15T00:25:23.345Z,81.66
2018-04-15T00:26:23.283Z,80.90
2018-04-15T00:27:23.270Z,81.66
2018-04-15T00:28:23.227Z,80.99
2018-04-15T00:29:23.191Z,80.99
2018-04-15T00:30:23.142Z,80.90
2018-04-15T00:31:23.047Z,81.37
2018-04-15T00:32:22.998Z,82.04
2018-04-15T00:33:22.954Z,81.76
2018-04-15T00:34:22.938Z,82.61
2018-04-15T00:35:22.856Z,82.51
2018-04-15T00:36:22.801Z,82.99
2018-04-15T00:37:22.764Z,83.56
2018-04-15T00:38:22.743Z,83.75
2018-04-15T00:39:22.677Z,83.65
2018-04-15T00:40:22.634Z,83.56
2018-04-15T00:41:22.594Z,83.75
2018-04-15T00:42:22.519Z,83.56
2018-04-15T00:43:22.469Z,83.94
2018-04-15T00:44:22.450Z,83.28
2018-04-15T00:45:22.375Z,83.18
2018-04-15T00:46:22.354Z,82.80
2018-04-15T00:47:22.276Z,83.09
2018-04-15T00:48:22.253Z,82.42
2018-04-15T00:49:22.220Z,82.70
2018-04-15T00:50:22.129Z,83.28
2018-04-15T00:51:22.079Z,83.18
2018-04-15T00:52:22.035Z,84.04
2018-04-15T00:53:21.990Z,84.85
2018-04-15T00:54:21.972Z,84.76
2018-04-15T00:55:21.892Z,83.18
2018-04-15T00:56:21.842Z,83.09
2018-04-15T00:57:21.804Z,83.81
2018-04-15T00:58:21.777Z,83.42
2018-04-15T00:59:21.693Z,84.09
2018-04-15T01:00:21.685Z,83.90
2018-04-15T01:01:21.600Z,82.61
2018-04-15T01:02:21.547Z,82.61
2018-04-15T01:03:21.503Z,82.14
2018-04-15T01:04:21.452Z,82.32
2018-04-15T01:05:21.435Z,82.23
2018-04-15T01:06:21.369Z,82.51
2018-04-15T01:07:21.313Z,82.32
2018-04-15T01:08:21.260Z,82.61
2018-04-15T01:09:21.214Z,82.04
2018-04-15T01:10:21.200Z,82.42
2018-04-15T01:11:21.147Z,82.80
2018-04-15T01:12:21.063Z,82.32
2018-04-15T01:13:21.018Z,81.76
2018-04-15T01:14:20.966Z,82.14
2018-04-15T01:15:20.920Z,82.42
2018-04-15T01:16:20.922Z,82.86
2018-04-15T01:17:20.828Z,83.14
2018-04-15T01:18:20.774Z,82.99
2018-04-15T01:19:20.728Z,83.09
2018-04-15T01:20:20.679Z,82.38
2018-04-15T01:21:20.661Z,83.04
2018-04-15T01:22:20.582Z,82.04
2018-04-15T01:23:20.528Z,82.70
2018-04-15T01:24:20.511Z,82.32
2018-04-15T01:25:20.429Z,81.28
2018-04-15T01:26:20.382Z,80.90
2018-04-15T01:27:20.340Z,81.47
2018-04-15T01:28:20.333Z,80.71
2018-04-15T01:29:20.235Z,80.90
2018-04-15T01:30:20.192Z,80.61
2018-04-15T01:31:20.145Z,80.80
2018-04-15T01:32:20.136Z,80.80
2018-04-15T01:33:20.048Z,81.47
2018-04-15T01:34:19.996Z,82.42
2018-04-15T01:35:19.945Z,81.76
2018-04-15T01:36:19.908Z,81.66
2018-04-15T01:37:19.883Z,81.66
2018-04-15T01:38:19.797Z,81.85
2018-04-15T01:39:19.752Z,81.66
2018-04-15T01:40:19.704Z,82.32
2018-04-15T01:41:19.656Z,82.14
2018-04-15T01:42:19.740Z,81.85
2018-04-15T01:43:19.560Z,82.14
2018-04-15T01:44:19.519Z,82.51
2018-04-15T01:45:19.467Z,81.95
2018-04-15T01:46:19.413Z,82.23
2018-04-15T01:47:19.397Z,81.95
2018-04-15T01:48:19.317Z,82.14
2018-04-15T01:49:19.307Z,81.85
2018-04-15T01:50:19.215Z,80.99
2018-04-15T01:51:19.165Z,79.85
2018-04-15T01:52:19.132Z,78.99
2018-04-15T01:53:19.077Z,78.42
2018-04-15T01:54:19.056Z,78.42
2018-04-15T01:55:18.976Z,78.71
2018-04-15T01:56:18.932Z,78.99
2018-04-15T01:57:18.877Z,78.80
2018-04-15T01:58:18.832Z,79.38
2018-04-15T01:59:18.813Z,79.51
2018-04-15T02:00:18.733Z,78.99
2018-04-15T02:01:18.724Z,79.70
2018-04-15T02:02:18.636Z,79.47
2018-04-15T02:03:18.587Z,79.70
2018-04-15T02:04:18.552Z,79.80
2018-04-15T02:05:18.534Z,79.41
2018-04-15T02:06:18.445Z,79.41
2018-04-15T02:07:18.392Z,79.32
2018-04-15T02:08:18.356Z,79.32
2018-04-15T02:09:18.296Z,78.75
2018-04-15T02:10:18.280Z,78.85
2018-04-15T02:11:18.216Z,78.85
2018-04-15T02:12:18.151Z,78.75
2018-04-15T02:13:18.111Z,78.27
2018-04-15T02:14:18.060Z,78.65
2018-04-15T02:15:18.052Z,78.75
2018-04-15T02:16:17.962Z,78.85
2018-04-15T02:17:17.915Z,78.94
2018-04-15T02:18:17.863Z,78.85
2018-04-15T02:19:17.817Z,79.03
2018-04-15T02:20:17.808Z,78.94
2018-04-15T02:21:17.749Z,79.03
2018-04-15T02:22:17.674Z,78.37
2018-04-15T02:23:17.629Z,78.65
2018-04-15T02:24:17.575Z,78.75
2018-04-15T02:25:18.537Z,78.27
2018-04-15T02:26:17.525Z,77.42
2018-04-15T02:27:17.428Z,77.42
2018-04-15T02:28:17.381Z,77.61
2018-04-15T02:29:17.339Z,77.89
2018-04-15T02:30:17.291Z,77.51
2018-04-15T02:31:17.293Z,77.70
2018-04-15T02:32:17.186Z,77.61
2018-04-15T02:33:17.142Z,77.42
2018-04-15T02:34:17.090Z,77.70
2018-04-15T02:35:17.046Z,78.37
2018-04-15T02:36:17.036Z,78.17
2018-04-15T02:37:16.949Z,78.37
2018-04-15T02:38:16.903Z,78.37
2018-04-15T02:39:16.852Z,78.08
2018-04-15T02:40:16.834Z,77.61
2018-04-15T02:41:16.763Z,78.37
2018-04-15T02:42:16.707Z,78.08
2018-04-15T02:43:16.657Z,77.03
2018-04-15T02:44:16.612Z,75.99
2018-04-15T02:45:16.621Z,75.99
2018-04-15T02:46:16.522Z,75.70
2018-04-15T02:47:16.470Z,75.42
2018-04-15T02:48:16.418Z,76.08
2018-04-15T02:49:16.372Z,75.51
2018-04-15T02:50:16.365Z,75.70
2018-04-15T02:51:16.827Z,76.27
2018-04-15T02:52:16.234Z,75.99
2018-04-15T02:53:16.181Z,75.89
2018-04-15T02:54:16.132Z,76.94
2018-04-15T02:55:16.117Z,77.13
2018-04-15T02:56:16.031Z,77.22
2018-04-15T02:57:16.014Z,78.46
2018-04-15T02:58:15.939Z,78.08
2018-04-15T02:59:15.882Z,78.46
2018-04-15T03:00:15.841Z,79.22
2018-04-15T03:01:15.791Z,78.85
2018-04-15T03:02:15.798Z,78.90
2018-04-15T03:03:15.696Z,79.51
2018-04-15T03:04:15.644Z,79.57
2018-04-15T03:05:15.597Z,80.33
2018-04-15T03:06:15.545Z,79.38
2018-04-15T03:07:15.544Z,79.66
2018-04-15T03:08:15.457Z,79.09
2018-04-15T03:09:15.454Z,78.90
2018-04-15T03:10:15.369Z,79.09
2018-04-15T03:11:15.315Z,78.61
2018-04-15T03:12:15.256Z,78.23
2018-04-15T03:13:15.211Z,78.17
2018-04-15T03:14:15.215Z,78.99
2018-04-15T03:15:15.113Z,78.80
2018-04-15T03:16:15.062Z,78.46
2018-04-15T03:17:15.020Z,78.42
2018-04-15T03:18:14.973Z,78.85
2018-04-15T03:19:14.951Z,78.80
2018-04-15T03:20:14.912Z,78.52
2018-04-15T03:21:14.825Z,78.17
2018-04-15T03:22:14.780Z,78.42
2018-04-15T03:23:14.723Z,78.61
2018-04-15T03:24:14.679Z,79.47
2018-04-15T03:25:14.664Z,79.28
2018-04-15T03:26:14.582Z,79.57
2018-04-15T03:27:14.535Z,78.52
2018-04-15T03:28:14.480Z,77.95
2018-04-15T03:29:14.433Z,77.51
2018-04-15T03:30:14.437Z,77.56
2018-04-15T03:31:14.343Z,77.51
2018-04-15T03:32:14.295Z,77.80
2018-04-15T03:33:14.241Z,76.56
2018-04-15T03:34:14.191Z,76.56
2018-04-15T03:35:14.172Z,76.27
2018-04-15T03:36:14.100Z,76.56
2018-04-15T03:37:14.059Z,75.99
2018-04-15T03:38:14.062Z,75.89
2018-04-15T03:39:13.954Z,76.27
2018-04-15T03:40:13.905Z,76.37
2018-04-15T03:41:13.859Z,76.94
2018-04-15T03:42:13.823Z,76.84
2018-04-15T03:43:13.789Z,76.27
2018-04-15T03:44:13.711Z,75.99
2018-04-15T03:45:13.657Z,76.27
2018-04-15T03:46:13.753Z,77.03
2018-04-15T03:47:13.563Z,75.89
2018-04-15T03:48:13.518Z,76.46
2018-04-15T03:49:13.469Z,76.94
2018-04-15T03:50:13.421Z,76.65
2018-04-15T03:51:13.405Z,76.37
2018-04-15T03:52:13.358Z,76.46
2018-04-15T03:53:13.277Z,76.56
2018-04-15T03:54:13.239Z,76.84
2018-04-15T03:55:13.173Z,76.65
2018-04-15T03:56:13.127Z,76.65
2018-04-15T03:57:13.115Z,76.84
2018-04-15T03:58:13.035Z,77.03
2018-04-15T03:59:12.979Z,77.22
2018-04-15T04:00:12.977Z,76.65
2018-04-15T04:01:12.902Z,76.75
2018-04-15T04:02:12.840Z,76.75
2018-04-15T04:03:12.809Z,76.84
2018-04-15T04:04:12.744Z,76.84
2018-04-15T04:05:12.728Z,76.65
2018-04-15T04:06:12.646Z,76.46
2018-04-15T04:07:12.596Z,76.65
2018-04-15T04:08:12.576Z,76.56
2018-04-15T04:09:12.494Z,76.46
2018-04-15T04:10:12.453Z,76.18
2018-04-15T04:11:12.401Z,76.65
2018-04-15T04:12:12.351Z,76.08
2018-04-15T04:13:12.333Z,76.08
2018-04-15T04:14:12.293Z,76.08
2018-04-15T04:15:12.238Z,76.08
2018-04-15T04:16:12.163Z,76.56
2018-04-15T04:17:12.111Z,76.46
2018-04-15T04:18:12.065Z,76.27
2018-04-15T04:19:12.058Z,76.08
2018-04-15T04:20:11.967Z,75.89
2018-04-15T04:21:11.917Z,76.56
2018-04-15T04:22:11.879Z,75.89
2018-04-15T04:23:11.821Z,76.56
2018-04-15T04:24:11.887Z,76.65
2018-04-15T04:25:11.722Z,77.13
2018-04-15T04:26:11.690Z,77.70
2018-04-15T04:27:11.629Z,77.51
2018-04-15T04:28:11.583Z,77.32
2018-04-15T04:29:11.583Z,77.32
2018-04-15T04:30:11.481Z,77.61
2018-04-15T04:31:11.439Z,77.61
2018-04-15T04:32:11.389Z,78.42
2018-04-15T04:33:11.342Z,78.61
2018-04-15T04:34:11.326Z,78.46
2018-04-15T04:35:11.284Z,78.90
2018-04-15T04:36:11.192Z,79.28
2018-04-15T04:37:11.145Z,78.42
2018-04-15T04:38:11.096Z,79.47
2018-04-15T04:39:11.048Z,79.66
2018-04-15T04:40:11.040Z,80.33
2018-04-15T04:41:10.959Z,79.94
2018-04-15T04:42:10.908Z,79.85
2018-04-15T04:43:10.856Z,80.33
2018-04-15T04:44:10.811Z,79.66
2018-04-15T04:45:10.790Z,80.33
2018-04-15T04:46:10.707Z,80.23
2018-04-15T04:47:10.662Z,80.90
2018-04-15T04:48:10.609Z,80.80
2018-04-15T04:49:10.598Z,81.47
2018-04-15T04:50:10.513Z,82.23
2018-04-15T04:51:10.466Z,82.99
2018-04-15T04:52:10.460Z,82.32
2018-04-15T04:53:10.378Z,83.33
2018-04-15T04:54:10.321Z,82.61
2018-04-15T04:55:10.278Z,82.80
2018-04-15T04:56:10.221Z,81.85
2018-04-15T04:57:10.223Z,81.28
2018-04-15T04:58:10.122Z,81.28
2018-04-15T04:59:10.084Z,81.76
2018-04-15T05:00:10.037Z,82.61
2018-04-15T05:01:09.981Z,82.99
2018-04-15T05:02:09.969Z,82.61
2018-04-15T05:03:09.908Z,82.42
2018-04-15T05:04:09.837Z,82.51
2018-04-15T05:05:09.795Z,82.90
2018-04-15T05:06:09.794Z,82.90
2018-04-15T05:07:09.690Z,82.51
2018-04-15T05:08:09.642Z,82.99
2018-04-15T05:09:09.598Z,82.04
2018-04-15T05:10:09.541Z,82.42
2018-04-15T05:11:09.527Z,81.56
2018-04-15T05:12:09.445Z,81.28
2018-04-15T05:13:09.437Z,80.99
2018-04-15T05:14:09.362Z,80.80
2018-04-15T05:15:09.294Z,80.71
2018-04-15T05:16:09.288Z,80.52
2018-04-15T05:17:09.245Z,80.71
2018-04-15T05:18:09.158Z,80.80
2018-04-15T05:19:09.114Z,80.99
2018-04-15T05:20:09.091Z,80.55
2018-04-15T05:21:09.007Z,80.04
2018-04-15T05:22:08.967Z,80.08
2018-04-15T05:23:08.911Z,80.36
2018-04-15T05:24:08.895Z,80.84
2018-04-15T05:25:08.816Z,81.32
2018-04-15T05:26:08.766Z,80.94
2018-04-15T05:27:08.718Z,81.70
2018-04-15T05:28:08.669Z,81.32
2018-04-15T05:29:08.654Z,81.23
2018-04-15T05:30:08.598Z,82.08
2018-04-15T05:31:08.564Z,81.13
2018-04-15T05:32:08.476Z,81.51
2018-04-15T05:33:08.424Z,81.41
2018-04-15T05:34:08.379Z,81.32
2018-04-15T05:35:08.368Z,81.07
2018-04-15T05:36:08.282Z,80.98
2018-04-15T05:37:08.238Z,80.79
2018-04-15T05:38:08.188Z,81.17
2018-04-15T05:39:08.173Z,80.41
2018-04-15T05:40:08.086Z,80.50
2018-04-15T05:41:08.072Z,80.41
2018-04-15T05:42:07.994Z,80.31
2018-04-15T05:43:07.980Z,79.93
2018-04-15T05:44:07.898Z,80.50
2018-04-15T05:45:07.849Z,80.12
2018-04-15T05:46:07.819Z,80.31
2018-04-15T05:47:07.799Z,80.02
2018-04-15T05:48:07.751Z,80.07
2018-04-15T05:49:07.663Z,79.74
2018-04-15T05:50:07.608Z,79.49
2018-04-15T05:51:07.567Z,79.49
2018-04-15T05:52:07.516Z,78.92
2018-04-15T05:53:07.495Z,78.92
2018-04-15T05:54:07.476Z,79.49
2018-04-15T05:55:07.375Z,78.92
2018-04-15T05:56:07.319Z,78.92
2018-04-15T05:57:07.278Z,81.02
2018-04-15T05:58:07.225Z,81.12
2018-04-15T05:59:07.225Z,81.40
2018-04-15T06:00:07.140Z,81.21
2018-04-15T06:01:07.085Z,80.64
2018-04-15T06:02:07.077Z,80.92
2018-04-15T06:03:06.997Z,80.26
2018-04-15T06:04:06.938Z,79.97
2018-04-15T06:05:06.935Z,80.54
2018-04-15T06:06:06.847Z,80.26
2018-04-15T06:07:06.841Z,80.07
2018-04-15T06:08:06.761Z,80.73
2018-04-15T06:09:06.747Z,80.26
2018-04-15T06:10:06.667Z,80.58
2018-04-15T06:11:06.619Z,80.30
2018-04-15T06:12:06.560Z,80.58
2018-04-15T06:13:06.520Z,80.49
2018-04-15T06:14:06.503Z,80.49
2018-04-15T06:15:06.422Z,80.20
2018-04-15T06:16:06.376Z,80.11
2018-04-15T06:17:06.331Z,79.72
2018-04-15T06:18:06.324Z,80.77
2018-04-15T06:19:06.234Z,81.10
2018-04-15T06:20:06.195Z,81.01
2018-04-15T06:21:06.171Z,80.43
2018-04-15T06:22:06.092Z,81.10
2018-04-15T06:23:06.053Z,80.62
2018-04-15T06:24:06.027Z,80.91
2018-04-15T06:25:05.969Z,80.62
2018-04-15T06:26:05.905Z,79.96
2018-04-15T06:27:05.861Z,80.53
2018-04-15T06:28:05.810Z,79.86
2018-04-15T06:29:05.791Z,79.38
2018-04-15T06:30:05.721Z,79.10
2018-04-15T06:31:05.709Z,77.86
2018-04-15T06:32:05.624Z,77.86
2018-04-15T06:33:05.578Z,77.57
2018-04-15T06:34:05.536Z,78.52
2018-04-15T06:35:05.515Z,78.81
2018-04-15T06:36:05.470Z,78.67
2018-04-15T06:37:05.392Z,78.49
2018-04-15T06:38:05.393Z,78.01
2018-04-15T06:39:05.300Z,78.72
2018-04-15T06:40:05.252Z,78.49
2018-04-15T06:41:05.225Z,78.96
2018-04-15T06:42:05.160Z,79.53
2018-04-15T06:43:05.150Z,80.30
2018-04-15T06:44:05.071Z,79.53
2018-04-15T06:45:05.052Z,79.35
2018-04-15T06:46:05.005Z,79.82
2018-04-15T06:47:04.938Z,79.91
2018-04-15T06:48:04.875Z,79.35
2018-04-15T06:49:04.838Z,80.39
2018-04-15T06:50:04.826Z,80.73
2018-04-15T06:51:04.752Z,80.26
2018-04-15T06:52:04.719Z,80.58
2018-04-15T06:53:04.666Z,80.87
2018-04-15T06:54:04.601Z,80.64
2018-04-15T06:55:04.551Z,80.83
2018-04-15T06:56:04.507Z,80.73
2018-04-15T06:57:04.464Z,80.83
2018-04-15T06:58:04.459Z,80.73
2018-04-15T06:59:04.360Z,80.92
2018-04-15T07:00:04.319Z,81.12
2018-04-15T07:01:04.284Z,80.73
2018-04-15T07:02:04.227Z,80.83
2018-04-15T07:03:04.220Z,81.02
2018-04-15T07:04:04.130Z,80.64
2018-04-15T07:05:04.073Z,81.06
2018-04-15T07:06:04.039Z,80.92
2018-04-15T07:07:03.986Z,81.02
2018-04-15T07:08:03.977Z,80.64
2018-04-15T07:09:03.891Z,81.02
2018-04-15T07:10:03.838Z,81.25
2018-04-15T07:11:03.795Z,81.25
2018-04-15T07:12:03.748Z,81.06
2018-04-15T07:13:03.740Z,80.39
2018-04-15T07:14:03.653Z,80.30
2018-04-15T07:15:03.609Z,80.20
2018-04-15T07:16:03.558Z,80.96
2018-04-15T07:17:03.509Z,80.77
2018-04-15T07:18:03.509Z,79.82
2018-04-15T07:19:03.422Z,79.63
2018-04-15T07:20:03.375Z,79.15
2018-04-15T07:21:03.331Z,78.96
2018-04-15T07:22:03.295Z,80.39
2018-04-15T07:23:03.264Z,79.96
2018-04-15T07:24:03.215Z,79.35
2018-04-15T07:25:03.142Z,78.52
2018-04-15T07:26:03.088Z,78.72
2018-04-15T07:27:03.050Z,78.81
2018-04-15T07:28:03.016Z,79.10
2018-04-15T07:29:02.989Z,78.91
2018-04-15T07:30:02.901Z,79.00
2018-04-15T07:31:02.865Z,79.38
2018-04-15T07:32:02.815Z,79.28
2018-04-15T07:33:02.761Z,79.28
2018-04-15T07:34:02.755Z,79.28
2018-04-15T07:35:02.678Z,77.47
2018-04-15T07:36:02.624Z,77.19
2018-04-15T07:37:02.575Z,76.75
2018-04-15T07:38:02.530Z,76.37
2018-04-15T07:39:02.521Z,76.46
2018-04-15T07:40:02.437Z,76.46
2018-04-15T07:41:02.426Z,76.08
2018-04-15T07:42:02.345Z,75.60
2018-04-15T07:43:02.296Z,75.16
2018-04-15T07:44:02.257Z,75.03
2018-04-15T07:45:02.211Z,74.02
2018-04-15T07:46:02.194Z,74.30
2018-04-15T07:47:02.124Z,73.92
2018-04-15T07:48:02.100Z,72.83
2018-04-15T07:49:02.020Z,73.07
2018-04-15T07:50:01.996Z,72.11
2018-04-15T07:51:01.957Z,71.34
2018-04-15T07:52:01.947Z,72.20
2018-04-15T07:53:01.844Z,71.86
2018-04-15T07:54:01.807Z,71.57
2018-04-15T07:55:01.742Z,70.27
2018-04-15T07:56:01.807Z,69.60
2018-04-15T07:57:01.653Z,67.72
2018-04-15T07:58:01.648Z,67.53
2018-04-15T07:59:01.564Z,67.63
2018-04-15T08:00:01.520Z,67.27
2018-04-15T08:01:01.469Z,67.02
2018-04-15T08:02:01.428Z,66.38
2018-04-15T08:03:01.421Z,65.81
2018-04-15T08:04:01.341Z,66.58
2018-04-15T08:05:01.307Z,67.05
2018-04-15T08:06:01.247Z,66.00
2018-04-15T08:07:01.244Z,65.84
2018-04-15T08:08:01.201Z,65.75
2018-04-15T08:09:01.124Z,66.13
2018-04-15T08:10:01.112Z,66.86
2018-04-15T08:11:01.032Z,66.00
2018-04-15T08:12:00.988Z,67.63
2018-04-15T08:13:00.958Z,67.44
2018-04-15T08:14:00.898Z,66.67
2018-04-15T08:15:00.892Z,66.86
2018-04-15T08:16:00.938Z,67.09
2018-04-15T08:17:00.768Z,65.84
2018-04-15T08:18:00.728Z,65.26
2018-04-15T08:19:00.682Z,64.89
2018-04-15T08:20:00.705Z,64.69
2018-04-15T08:21:00.700Z,64.59
2018-04-15T08:22:00.596Z,64.59
2018-04-15T08:23:00.546Z,64.31
2018-04-15T08:24:00.502Z,64.12
2018-04-15T08:25:00.425Z,63.64
2018-04-15T08:26:00.392Z,64.37
2018-04-15T08:27:00.338Z,64.56
2018-04-15T08:28:00.332Z,64.66
2018-04-15T08:29:00.286Z,65.14
2018-04-15T08:30:00.212Z,65.42
2018-04-15T08:31:00.192Z,65.52
2018-04-15T08:32:00.124Z,66.38
2018-04-15T08:33:00.084Z,66.48
2018-04-15T08:34:00.041Z,65.91
2018-04-15T08:34:59.995Z,65.91
2018-04-15T08:35:59.998Z,66.00
2018-04-15T08:36:59.913Z,66.19
2018-04-15T08:37:59.876Z,66.86
2018-04-15T08:38:59.855Z,66.00
2018-04-15T08:39:59.847Z,66.96
2018-04-15T08:40:59.747Z,66.19
2018-04-15T08:41:59.746Z,65.91
2018-04-15T08:42:59.654Z,66.38
2018-04-15T08:43:59.612Z,67.25
2018-04-15T08:44:59.572Z,67.05
2018-04-15T08:45:59.573Z,66.09
2018-04-15T08:46:59.537Z,65.71
2018-04-15T08:47:59.444Z,66.58
2018-04-15T08:48:59.402Z,65.81
2018-04-15T08:49:59.357Z,66.00
2018-04-15T08:50:59.310Z,66.48
2018-04-15T08:51:59.316Z,66.19
2018-04-15T08:52:59.231Z,66.13
2018-04-15T08:53:59.183Z,64.59
2018-04-15T08:54:59.146Z,64.59
2018-04-15T08:55:59.115Z,64.05
2018-04-15T08:56:59.189Z,62.90
2018-04-15T08:57:59.040Z,63.86
2018-04-15T08:58:58.975Z,63.42
2018-04-15T08:59:58.926Z,61.49
2018-04-15T09:00:58.884Z,61.14
2018-04-15T09:01:58.874Z,59.80
2018-04-15T09:02:58.823Z,58.77
2018-04-15T09:03:58.758Z,57.14
2018-04-15T09:04:58.719Z,57.52
2018-04-15T09:05:58.674Z,57.07
2018-04-15T09:06:58.632Z,56.30
2018-04-15T09:07:58.627Z,56.68
2018-04-15T09:08:58.561Z,55.73
2018-04-15T09:09:58.546Z,56.04
2018-04-15T09:10:58.472Z,57.48
2018-04-15T09:11:58.422Z,55.56
2018-04-15T09:12:58.492Z,54.99
2018-04-15T09:13:58.359Z,53.83
2018-04-15T09:14:58.322Z,53.86
2018-04-15T09:15:58.296Z,53.28
2018-04-15T09:16:58.266Z,52.89
2018-04-15T09:17:58.180Z,53.59
2018-04-15T09:18:58.139Z,53.69
2018-04-15T09:19:58.148Z,52.54
2018-04-15T09:20:58.054Z,51.38
2018-04-15T09:21:58.096Z,51.38
2018-04-15T09:22:57.978Z,49.07
2018-04-15T09:23:57.934Z,48.69
2018-04-15T09:24:57.929Z,49.33
2018-04-15T09:25:57.854Z,49.24
2018-04-15T09:26:57.814Z,48.18
2018-04-15T09:27:57.801Z,49.24
2018-04-15T09:28:57.754Z,49.24
2018-04-15T09:29:57.723Z,49.72
2018-04-15T09:30:57.752Z,49.05
2018-04-15T09:31:57.614Z,48.54
2018-04-15T09:32:57.590Z,49.12
2018-04-15T09:33:57.659Z,48.54
2018-04-15T09:34:57.538Z,47.77
2018-04-15T09:35:57.515Z,48.04
2018-04-15T09:36:57.470Z,47.17
2018-04-15T09:37:57.448Z,47.27
2018-04-15T09:38:57.475Z,47.30
2018-04-15T09:39:57.298Z,47.80
2018-04-15T09:40:57.261Z,46.38
2018-04-15T09:41:57.214Z,46.67
2018-04-15T09:42:57.173Z,45.51
2018-04-15T09:43:57.173Z,46.11
2018-04-15T09:44:57.171Z,45.65
2018-04-15T09:45:57.092Z,46.55
2018-04-15T09:46:57.015Z,45.89
2018-04-15T09:47:56.980Z,44.85
2018-04-15T09:48:56.938Z,43.91
2018-04-15T09:49:56.923Z,44.12
2018-04-15T09:50:56.872Z,43.26
2018-04-15T09:51:56.846Z,43.26
2018-04-15T09:52:56.777Z,43.26
2018-04-15T09:53:56.739Z,46.27
2018-04-15T09:54:56.702Z,47.63
2018-04-15T09:55:56.661Z,47.43
2018-04-15T09:56:56.664Z,46.08
2018-04-15T09:57:56.676Z,45.69
2018-04-15T09:58:56.548Z,46.27
2018-04-15T09:59:56.511Z,46.27
2018-04-15T10:00:56.473Z,44.34
2018-04-15T10:01:56.433Z,47.24
2018-04-15T10:02:56.512Z,47.31
2018-04-15T10:03:56.397Z,45.96
2018-04-15T10:04:56.325Z,46.44
2018-04-15T10:05:56.287Z,45.67
2018-04-15T10:06:56.249Z,47.70
2018-04-15T10:07:56.230Z,48.25
2018-04-15T10:08:56.207Z,48.54
2018-04-15T10:09:56.134Z,48.52
2018-04-15T10:10:56.099Z,49.32
2018-04-15T10:11:56.063Z,49.58
2018-04-15T10:12:56.027Z,48.61
2018-04-15T10:13:56.035Z,48.90
2018-04-15T10:14:55.965Z,48.69
2018-04-15T10:15:55.906Z,49.27
2018-04-15T10:16:55.923Z,49.17
2018-04-15T10:17:55.843Z,49.27
2018-04-15T10:18:55.830Z,49.75
2018-04-15T10:19:55.754Z,49.75
2018-04-15T10:20:55.721Z,50.32
2018-04-15T10:21:55.681Z,50.62
2018-04-15T10:22:55.642Z,50.30
2018-04-15T10:23:55.649Z,48.59
2018-04-15T10:24:55.649Z,49.17
2018-04-15T10:25:55.542Z,49.27
2018-04-15T10:26:55.560Z,50.52
2018-04-15T10:27:55.455Z,48.30
2018-04-15T10:28:55.416Z,51.00
2018-04-15T10:29:55.377Z,51.99
2018-04-15T10:30:55.340Z,52.64
2018-04-15T10:31:55.348Z,52.16
2018-04-15T10:32:55.271Z,50.90
2018-04-15T10:33:55.228Z,50.71
2018-04-15T10:34:55.199Z,49.55
2018-04-15T10:35:55.202Z,50.32
2018-04-15T10:36:55.258Z,48.97
2018-04-15T10:37:55.102Z,51.68
2018-04-15T10:38:55.038Z,51.68
2018-04-15T10:39:55.009Z,52.45
2018-04-15T10:40:54.994Z,51.97
2018-04-15T10:41:54.964Z,50.81
2018-04-15T10:42:54.993Z,51.39
2018-04-15T10:43:54.848Z,51.58
2018-04-15T10:44:54.814Z,49.37
2018-04-15T10:45:54.781Z,50.84
2018-04-15T10:46:54.743Z,49.96
2018-04-15T10:47:54.736Z,50.54
2018-04-15T10:48:54.669Z,51.15
2018-04-15T10:49:54.623Z,49.32
2018-04-15T10:50:54.590Z,48.64
2018-04-15T10:51:54.584Z,50.38
2018-04-15T10:52:54.552Z,48.57
2018-04-15T10:53:54.481Z,48.37
2018-04-15T10:54:54.439Z,48.47
2018-04-15T10:55:54.404Z,48.57
2018-04-15T10:56:54.407Z,48.08
2018-04-15T10:57:54.335Z,48.37
2018-04-15T10:58:54.348Z,49.34
2018-04-15T10:59:54.329Z,49.15
2018-04-15T11:00:54.217Z,48.47
2018-04-15T11:01:54.183Z,48.76
2018-04-15T11:02:54.230Z,48.86
2018-04-15T11:03:54.134Z,48.66
2018-04-15T11:04:54.543Z,49.34
2018-04-15T11:05:54.031Z,49.15
2018-04-15T11:06:53.992Z,49.05
2018-04-15T11:07:53.961Z,49.15
2018-04-15T11:08:53.932Z,50.31
2018-04-15T11:09:53.915Z,50.59
2018-04-15T11:10:53.849Z,51.37
2018-04-15T11:11:53.844Z,52.43
2018-04-15T11:12:53.772Z,51.17
2018-04-15T11:13:53.802Z,51.75
2018-04-15T11:14:53.697Z,49.34
2018-04-15T11:15:53.704Z,51.59
2018-04-15T11:16:53.634Z,51.97
2018-04-15T11:17:53.648Z,50.91
2018-04-15T11:18:53.553Z,49.37
2018-04-15T11:19:53.550Z,48.11
2018-04-15T11:20:53.501Z,49.49
2018-04-15T11:21:53.488Z,51.71
2018-04-15T11:22:53.405Z,48.35
2018-04-15T11:23:53.402Z,48.06
2018-04-15T11:24:53.329Z,48.64
2018-04-15T11:25:53.294Z,49.44
2018-04-15T11:26:53.259Z,48.27
2018-04-15T11:27:53.221Z,48.11
2018-04-15T11:28:53.224Z,46.66
2018-04-15T11:29:53.145Z,44.72
2018-04-15T11:30:53.115Z,43.37
2018-04-15T11:31:53.085Z,44.23
2018-04-15T11:32:53.039Z,43.85
2018-04-15T11:33:53.040Z,43.75
2018-04-15T11:34:52.989Z,43.95
2018-04-15T11:35:52.934Z,45.59
2018-04-15T11:36:52.920Z,44.91
2018-04-15T11:37:52.859Z,45.88
2018-04-15T11:38:52.869Z,43.87
2018-04-15T11:39:52.794Z,46.29
2018-04-15T11:40:52.759Z,45.81
2018-04-15T11:41:52.750Z,45.13
2018-04-15T11:42:52.681Z,45.20
2018-04-15T11:43:52.646Z,46.26
2018-04-15T11:44:52.628Z,45.78
2018-04-15T11:45:52.618Z,46.26
2018-04-15T11:46:52.551Z,45.66
2018-04-15T11:47:52.539Z,46.92
2018-04-15T11:48:52.479Z,48.66
2018-04-15T11:49:52.434Z,47.14
2018-04-15T11:50:52.403Z,47.14
2018-04-15T11:51:52.361Z,48.20
2018-04-15T11:52:52.359Z,46.46
2018-04-15T11:53:52.290Z,46.84
2018-04-15T11:54:52.310Z,46.36
2018-04-15T11:55:52.255Z,45.01
2018-04-15T11:56:52.188Z,46.17
2018-04-15T11:57:52.149Z,46.08
2018-04-15T11:58:52.116Z,46.75
2018-04-15T11:59:52.116Z,45.61
2018-04-15T12:00:52.045Z,45.71
2018-04-15T12:01:52.020Z,46.48
2018-04-15T12:02:51.977Z,45.81
2018-04-15T12:03:51.986Z,46.31
2018-04-15T12:04:51.917Z,45.92
2018-04-15T12:05:52.211Z,45.73
2018-04-15T12:06:51.923Z,44.47
2018-04-15T12:07:53.835Z,44.57
2018-04-15T12:08:51.818Z,43.04
2018-04-15T12:09:51.728Z,45.27
2018-04-15T12:10:51.693Z,44.96
2018-04-15T12:11:51.656Z,44.67
2018-04-15T12:12:51.620Z,46.09
2018-04-15T12:13:51.618Z,44.96
2018-04-15T12:14:51.547Z,45.25
2018-04-15T12:15:51.557Z,43.99
2018-04-15T12:16:51.478Z,43.77
2018-04-15T12:17:51.450Z,43.96
2018-04-15T12:18:51.997Z,42.51
2018-04-15T12:19:51.392Z,45.13
2018-04-15T12:20:51.509Z,43.58
2018-04-15T12:21:51.308Z,43.48
2018-04-15T12:22:51.271Z,43.27
2018-04-15T12:23:51.237Z,43.37
2018-04-15T12:24:51.201Z,45.20
2018-04-15T12:25:51.204Z,44.60
2018-04-15T12:26:51.132Z,44.31
2018-04-15T12:27:51.105Z,46.32
2018-04-15T12:28:51.063Z,46.92
2018-04-15T12:29:51.065Z,46.44
2018-04-15T12:30:51.029Z,47.60
2018-04-15T12:31:50.994Z,45.86
2018-04-15T12:32:50.928Z,44.13
2018-04-15T12:33:50.924Z,43.46
2018-04-15T12:34:50.883Z,43.37
2018-04-15T12:35:50.860Z,44.91
2018-04-15T12:36:50.779Z,43.37
2018-04-15T12:37:50.784Z,45.68
2018-04-15T12:38:50.720Z,45.22
2018-04-15T12:39:50.691Z,46.00
2018-04-15T12:40:50.745Z,46.77
2018-04-15T12:41:50.605Z,45.81
2018-04-15T12:42:50.567Z,44.54
2018-04-15T12:43:50.537Z,43.87
2018-04-15T12:44:50.506Z,44.35
2018-04-15T12:45:50.502Z,43.48
2018-04-15T12:46:50.435Z,44.54
2018-04-15T12:47:50.395Z,45.81
2018-04-15T12:48:50.363Z,44.09
2018-04-15T12:49:50.328Z,43.58
2018-04-15T12:50:50.347Z,44.35
2018-04-15T12:51:50.323Z,44.64